createdAt,value
2019-04-29T00:01:11.671Z,4.90
2019-04-29T00:03:55.367Z,4.67
2019-04-29T00:06:39.630Z,5.00
2019-04-29T00:09:24.097Z,4.50
2019-04-29T00:12:08.436Z,4.97
2019-04-29T00:18:00.981Z,5.37
2019-04-29T00:20:49.769Z,5.87
2019-04-29T00:23:33.406Z,6.30
2019-04-29T00:26:17.634Z,6.17
2019-04-29T00:29:01.312Z,6.20
2019-04-29T00:31:44.932Z,6.50
2019-04-29T00:34:30.143Z,6.75
2019-04-29T00:46:36.813Z,6.60
2019-04-29T00:49:21.250Z,6.47
2019-04-29T00:52:05.559Z,7.50
2019-04-29T00:54:54.905Z,6.90
2019-04-29T00:57:39.195Z,6.83
2019-04-29T01:03:22.936Z,6.40
2019-04-29T01:06:07.245Z,5.97
2019-04-29T01:08:51.192Z,6.77
2019-04-29T01:11:35.156Z,7.50
2019-04-29T01:14:19.329Z,6.95
2019-04-29T01:17:04.985Z,6.93
2019-04-29T01:19:49.463Z,6.43
2019-04-29T01:22:33.921Z,6.40
2019-04-29T01:25:17.927Z,5.17
2019-04-29T01:28:21.277Z,6.53
2019-04-29T01:40:48.338Z,7.23
2019-04-29T01:43:51.759Z,8.33
2019-04-29T01:46:35.887Z,8.78
2019-04-29T01:49:20.141Z,8.57
2019-04-29T01:52:04.901Z,8.20
2019-04-29T01:54:48.785Z,8.10
2019-04-29T01:57:32.601Z,7.97
2019-04-29T02:00:16.370Z,8.27
2019-04-29T02:03:01.084Z,8.30
2019-04-29T02:05:44.912Z,8.60
2019-04-29T02:08:28.958Z,8.63
2019-04-29T02:11:13.011Z,8.43
2019-04-29T02:13:57.509Z,8.47
2019-04-29T02:16:41.827Z,8.60
2019-04-29T02:19:26.018Z,8.97
2019-04-29T02:25:20.809Z,9.20
2019-04-29T02:28:11.417Z,9.20
2019-04-29T02:30:55.035Z,10.00
2019-04-29T02:33:39.192Z,9.20
2019-04-29T02:36:23.550Z,10.47
2019-04-29T02:39:25.939Z,10.50
2019-04-29T02:42:38.855Z,9.68
2019-04-29T02:45:27.825Z,9.23
2019-04-29T02:48:12.289Z,9.73
2019-04-29T02:50:56.569Z,10.07
2019-04-29T02:53:40.614Z,9.67
2019-04-29T02:56:24.324Z,10.50
2019-04-29T02:59:08.674Z,9.63
2019-04-29T03:02:17.158Z,9.97
2019-04-29T03:05:19.588Z,9.83
2019-04-29T03:08:02.351Z,9.57
2019-04-29T03:10:46.572Z,9.57
2019-04-29T03:13:30.230Z,9.80
2019-04-29T03:16:14.556Z,9.53
2019-04-29T03:19:02.199Z,9.67
2019-04-29T03:24:46.308Z,9.17
2019-04-29T03:27:31.156Z,9.73
2019-04-29T03:30:15.683Z,9.43
2019-04-29T03:32:59.833Z,9.48
2019-04-29T03:35:43.852Z,9.97
2019-04-29T03:38:27.899Z,10.10
2019-04-29T03:41:12.549Z,9.50
2019-04-29T03:43:56.197Z,9.00
2019-04-29T03:46:40.443Z,9.30
2019-04-29T03:49:24.464Z,9.53
2019-04-29T03:52:08.247Z,9.45
2019-04-29T03:54:52.210Z,10.20
2019-04-29T03:57:37.649Z,10.30
2019-04-29T04:00:21.523Z,9.90
2019-04-29T04:03:30.337Z,9.60
2019-04-29T04:06:36.196Z,9.93
2019-04-29T04:09:25.342Z,10.10
2019-04-29T04:12:09.641Z,9.98
2019-04-29T04:14:53.631Z,9.77
2019-04-29T04:17:43.052Z,10.33
2019-04-29T04:20:27.315Z,10.83
2019-04-29T04:23:11.823Z,10.50
2019-04-29T04:25:56.143Z,10.13
2019-04-29T04:28:39.992Z,11.30
2019-04-29T04:31:24.414Z,11.63
2019-04-29T04:34:07.985Z,11.87
2019-04-29T04:36:52.626Z,12.18
2019-04-29T04:39:39.101Z,12.47
2019-04-29T04:42:23.172Z,12.70
2019-04-29T04:45:07.363Z,12.40
2019-04-29T04:47:51.066Z,12.80
2019-04-29T04:50:35.277Z,13.68
2019-04-29T04:53:19.646Z,14.27
2019-04-29T04:56:03.154Z,13.93
2019-04-29T04:58:46.761Z,15.47
2019-04-29T05:01:30.956Z,16.43
2019-04-29T05:04:15.210Z,17.17
2019-04-29T05:06:58.896Z,16.30
2019-04-29T05:09:42.713Z,17.23
2019-04-29T05:12:27.249Z,17.97
2019-04-29T05:15:11.528Z,18.20
2019-04-29T05:17:56.069Z,17.90
2019-04-29T05:20:40.502Z,19.03
2019-04-29T05:23:24.638Z,19.50
2019-04-29T05:26:08.590Z,19.63
2019-04-29T05:28:52.818Z,20.83
2019-04-29T05:31:37.597Z,20.63
2019-04-29T05:34:23.235Z,21.00
2019-04-29T05:40:32.981Z,22.90
2019-04-29T05:43:19.392Z,23.43
2019-04-29T05:46:23.298Z,23.70
2019-04-29T05:49:09.506Z,23.53
2019-04-29T05:54:57.031Z,22.57
2019-04-29T05:57:41.589Z,24.10
2019-04-29T06:00:25.909Z,24.00
2019-04-29T06:03:09.798Z,24.50
2019-04-29T06:05:53.786Z,24.77
2019-04-29T06:08:39.095Z,23.23
2019-04-29T06:11:23.567Z,25.50
2019-04-29T06:14:07.107Z,25.67
2019-04-29T06:16:52.956Z,24.83
2019-04-29T06:19:39.445Z,25.17
2019-04-29T06:22:21.408Z,25.10
2019-04-29T06:25:05.077Z,25.63
2019-04-29T06:27:48.145Z,25.17
2019-04-29T06:30:31.957Z,26.57
2019-04-29T06:33:16.247Z,26.53
2019-04-29T06:36:01.123Z,27.60
2019-04-29T06:38:45.941Z,27.40
2019-04-29T06:41:29.806Z,27.90
2019-04-29T06:44:16.548Z,27.47
2019-04-29T06:46:59.410Z,27.53
2019-04-29T06:49:43.742Z,27.37
2019-04-29T06:52:28.580Z,27.80
2019-04-29T06:55:12.218Z,29.30
2019-04-29T06:57:57.111Z,29.10
2019-04-29T07:00:41.111Z,29.03
2019-04-29T07:03:25.454Z,28.12
2019-04-29T07:06:10.974Z,29.30
2019-04-29T07:08:55.356Z,26.37
2019-04-29T07:11:39.159Z,24.93
2019-04-29T07:14:22.747Z,22.60
2019-04-29T07:17:07.262Z,21.83
2019-04-29T07:19:51.568Z,20.53
2019-04-29T07:22:35.260Z,19.43
2019-04-29T07:25:18.841Z,19.57
2019-04-29T07:28:03.460Z,18.33
2019-04-29T07:31:01.187Z,18.27
2019-04-29T07:33:33.353Z,16.30
2019-04-29T07:36:22.734Z,16.53
2019-04-29T07:39:16.979Z,15.70
2019-04-29T07:42:03.329Z,15.27
2019-04-29T07:45:06.321Z,15.20
2019-04-29T07:47:56.469Z,14.58
2019-04-29T07:50:37.332Z,12.17
2019-04-29T07:53:35.054Z,12.15
2019-04-29T07:56:08.250Z,11.93
2019-04-29T07:58:52.754Z,11.93
2019-04-29T08:01:37.383Z,11.80
2019-04-29T08:04:20.986Z,10.80
2019-04-29T08:07:05.601Z,10.27
2019-04-29T08:09:49.354Z,10.70
2019-04-29T08:12:33.883Z,11.03
2019-04-29T08:15:19.297Z,10.50
2019-04-29T08:18:06.696Z,10.03
2019-04-29T08:20:49.216Z,10.30
2019-04-29T08:23:40.897Z,9.47
2019-04-29T08:26:18.842Z,8.43
2019-04-29T08:29:02.646Z,8.47
2019-04-29T08:31:46.859Z,8.83
2019-04-29T08:34:31.097Z,7.83
2019-04-29T08:37:15.078Z,8.15
2019-04-29T08:40:14.879Z,7.90
2019-04-29T08:42:50.181Z,8.85
2019-04-29T08:45:40.247Z,8.77
2019-04-29T08:48:40.363Z,8.65
2019-04-29T08:51:24.246Z,8.77
2019-04-29T08:54:08.075Z,9.03
2019-04-29T08:57:02.692Z,8.53
2019-04-29T08:59:38.555Z,8.60
2019-04-29T09:02:34.640Z,8.10
2019-04-29T09:05:11.259Z,8.67
2019-04-29T09:07:57.416Z,8.30
2019-04-29T09:10:40.608Z,8.13
2019-04-29T09:13:12.927Z,8.10
2019-04-29T09:15:57.401Z,7.97
2019-04-29T09:18:30.755Z,8.10
2019-04-29T09:21:14.476Z,7.80
2019-04-29T09:23:58.959Z,8.00
2019-04-29T09:27:05.069Z,7.33
2019-04-29T09:29:47.654Z,7.40
2019-04-29T09:32:34.013Z,8.27
2019-04-29T09:35:18.429Z,8.10
2019-04-29T09:38:02.475Z,7.83
2019-04-29T09:44:07.285Z,7.83
2019-04-29T09:46:51.213Z,7.93
2019-04-29T09:49:35.151Z,7.97
2019-04-29T09:52:19.451Z,7.62
2019-04-29T09:55:05.640Z,8.17
2019-04-29T09:57:50.113Z,8.43
2019-04-29T10:04:03.521Z,8.70
2019-04-29T10:06:48.630Z,9.05
2019-04-29T10:09:32.914Z,9.03
2019-04-29T10:12:16.751Z,9.47
2019-04-29T10:15:00.664Z,9.50
2019-04-29T10:18:09.986Z,9.50
2019-04-29T10:21:08.590Z,9.90
2019-04-29T10:23:52.442Z,10.60
2019-04-29T10:26:37.668Z,10.10
2019-04-29T10:29:25.721Z,9.90
2019-04-29T10:32:10.150Z,10.07
2019-04-29T10:34:54.175Z,9.47
2019-04-29T10:37:37.859Z,10.97
2019-04-29T10:43:53.571Z,9.60
2019-04-29T10:47:07.317Z,9.40
2019-04-29T10:49:56.326Z,9.33
2019-04-29T10:52:43.255Z,9.27
2019-04-29T10:58:35.444Z,9.90
2019-04-29T11:02:05.081Z,9.67
2019-04-29T11:08:04.856Z,10.30
2019-04-29T11:10:49.195Z,9.70
2019-04-29T11:13:34.079Z,10.58
2019-04-29T11:16:22.982Z,11.20
2019-04-29T11:19:05.839Z,10.53
2019-04-29T11:21:50.409Z,10.65
2019-04-29T11:24:56.256Z,10.90
2019-04-29T11:27:51.247Z,11.20
2019-04-29T11:30:39.538Z,10.95
2019-04-29T11:36:26.504Z,10.60
2019-04-29T11:39:16.807Z,12.10
2019-04-29T11:42:01.692Z,11.50
2019-04-29T11:44:46.718Z,11.60
2019-04-29T11:47:31.151Z,11.07
2019-04-29T11:53:24.623Z,12.10
2019-04-29T11:56:08.832Z,12.37
2019-04-29T12:02:23.844Z,11.60
2019-04-29T12:08:17.057Z,13.08
2019-04-29T12:11:07.097Z,13.17
2019-04-29T12:13:53.636Z,14.03
2019-04-29T12:16:41.199Z,13.17
2019-04-29T12:19:30.214Z,13.53
2019-04-29T12:22:30.050Z,15.00
2019-04-29T12:25:06.568Z,14.57
2019-04-29T12:28:00.652Z,14.63
2019-04-29T12:30:39.886Z,14.73
2019-04-29T12:36:28.037Z,17.15
2019-04-29T12:39:42.873Z,16.70
2019-04-29T12:42:55.189Z,16.13
2019-04-29T12:48:55.217Z,18.77
2019-04-29T12:51:39.688Z,19.00
2019-04-29T12:54:23.875Z,19.93
2019-04-29T12:57:08.126Z,20.23
2019-04-29T12:59:54.523Z,20.48
2019-04-29T13:03:00.123Z,21.15
2019-04-29T13:06:02.705Z,22.40
2019-04-29T13:08:50.692Z,20.60
2019-04-29T13:11:45.448Z,21.12
2019-04-29T13:14:22.919Z,18.90
2019-04-29T13:20:13.180Z,19.73
2019-04-29T13:22:59.012Z,20.20
2019-04-29T13:25:43.163Z,21.00
2019-04-29T13:28:30.384Z,21.50
2019-04-29T13:31:13.857Z,20.17
2019-04-29T13:34:08.897Z,21.47
2019-04-29T13:37:06.485Z,22.37
2019-04-29T13:39:41.560Z,25.03
2019-04-29T13:42:25.175Z,22.17
2019-04-29T13:45:13.508Z,22.35
2019-04-29T13:48:15.030Z,22.93
2019-04-29T13:51:08.894Z,23.17
2019-04-29T13:53:55.397Z,24.10
2019-04-29T13:56:55.505Z,24.12
2019-04-29T13:59:49.282Z,23.77
2019-04-29T14:02:58.904Z,23.33
2019-04-29T14:05:46.097Z,23.40
2019-04-29T14:08:30.650Z,23.97
2019-04-29T14:11:15.072Z,23.50
2019-04-29T14:13:59.356Z,23.57
2019-04-29T14:16:47.543Z,24.23
2019-04-29T14:19:44.001Z,23.22
2019-04-29T14:22:22.076Z,24.57
2019-04-29T14:25:00.278Z,23.67
2019-04-29T14:27:44.684Z,23.53
2019-04-29T14:30:38.446Z,24.67
2019-04-29T14:33:14.661Z,26.87
2019-04-29T14:39:06.277Z,25.37
2019-04-29T14:41:56.765Z,26.17
2019-04-29T14:48:12.273Z,24.27
2019-04-29T14:50:56.276Z,26.43
2019-04-29T14:53:55.077Z,25.73
2019-04-29T14:56:27.703Z,25.67
2019-04-29T14:59:11.753Z,26.23
2019-04-29T15:04:58.778Z,27.67
2019-04-29T15:07:43.106Z,28.63
2019-04-29T15:10:31.245Z,28.07
2019-04-29T15:13:21.427Z,27.33
2019-04-29T15:16:24.758Z,26.48
2019-04-29T15:19:28.228Z,28.37
2019-04-29T15:22:13.455Z,27.63
2019-04-29T15:24:57.872Z,28.65
2019-04-29T15:27:42.562Z,27.67
2019-04-29T15:30:26.075Z,27.77
2019-04-29T15:33:10.369Z,26.80
2019-04-29T15:35:54.941Z,27.13
2019-04-29T15:38:40.687Z,26.00
2019-04-29T15:41:31.001Z,24.50
2019-04-29T15:44:18.839Z,22.77
2019-04-29T15:46:57.567Z,20.82
2019-04-29T15:49:41.424Z,18.20
2019-04-29T15:52:27.412Z,18.52
2019-04-29T15:55:11.020Z,16.17
2019-04-29T15:57:54.731Z,15.70
2019-04-29T16:00:40.417Z,15.67
2019-04-29T16:03:24.693Z,14.73
2019-04-29T16:09:50.760Z,14.85
2019-04-29T16:12:23.851Z,13.97
2019-04-29T16:15:08.262Z,14.57
2019-04-29T16:17:52.447Z,14.30
2019-04-29T16:20:37.404Z,14.93
2019-04-29T16:23:22.569Z,26.57
2019-04-29T16:26:06.363Z,30.57
2019-04-29T16:28:52.616Z,30.77
2019-04-29T16:31:36.866Z,31.63
2019-04-29T16:34:22.553Z,32.08
2019-04-29T16:37:07.210Z,29.43
2019-04-29T16:39:39.837Z,30.02
2019-04-29T16:42:45.093Z,30.53
2019-04-29T16:45:53.439Z,29.45
2019-04-29T16:48:49.831Z,32.57
2019-04-29T16:51:34.396Z,32.03
2019-04-29T16:54:27.862Z,31.40
2019-04-29T16:57:09.966Z,31.43
2019-04-29T16:59:53.583Z,33.37
2019-04-29T17:02:25.748Z,32.93
2019-04-29T17:05:09.617Z,33.77
2019-04-29T17:07:54.385Z,33.40
2019-04-29T17:13:46.467Z,32.43
2019-04-29T17:16:30.686Z,33.30
2019-04-29T17:19:15.019Z,32.10
2019-04-29T17:22:24.154Z,31.68
2019-04-29T17:24:44.884Z,33.03
2019-04-29T17:30:53.764Z,35.03
2019-04-29T17:36:39.043Z,34.87
2019-04-29T17:39:24.240Z,35.23
2019-04-29T17:42:07.851Z,34.60
2019-04-29T17:44:52.870Z,35.43
2019-04-29T17:50:49.588Z,34.87
2019-04-29T17:57:15.563Z,34.70
2019-04-29T18:03:15.172Z,34.93
2019-04-29T18:09:25.852Z,33.90
2019-04-29T18:15:17.721Z,33.93
2019-04-29T18:18:04.774Z,34.50
2019-04-29T18:20:55.231Z,35.57
2019-04-29T18:23:59.404Z,36.80
2019-04-29T18:26:52.716Z,36.57
2019-04-29T18:29:41.623Z,38.40
2019-04-29T18:32:33.446Z,37.87
2019-04-29T18:35:10.102Z,36.77
2019-04-29T18:37:42.433Z,36.07
2019-04-29T18:40:42.370Z,36.87
2019-04-29T18:43:26.893Z,36.57
2019-04-29T18:46:16.500Z,36.17
2019-04-29T18:49:11.886Z,37.30
2019-04-29T18:51:57.992Z,34.47
2019-04-29T18:54:42.200Z,36.33
2019-04-29T19:00:28.780Z,35.50
2019-04-29T19:03:14.871Z,35.03
2019-04-29T19:06:03.292Z,36.53
2019-04-29T19:11:57.011Z,37.28
2019-04-29T19:14:47.640Z,37.07
2019-04-29T19:17:46.583Z,36.23
2019-04-29T19:20:30.669Z,36.10
2019-04-29T19:25:58.729Z,37.30
2019-04-29T19:28:47.020Z,37.90
2019-04-29T19:31:31.221Z,37.27
2019-04-29T19:34:19.656Z,36.90
2019-04-29T19:37:05.181Z,37.08
2019-04-29T19:39:52.547Z,37.43
2019-04-29T19:42:36.009Z,36.40
2019-04-29T19:45:20.749Z,37.97
2019-04-29T19:48:05.940Z,37.67
2019-04-29T19:51:13.994Z,39.63
2019-04-29T19:53:50.996Z,37.43
2019-04-29T19:56:36.280Z,38.00
2019-04-29T19:59:21.405Z,37.73
2019-04-29T20:02:10.204Z,38.08
2019-04-29T20:08:02.142Z,37.10
2019-04-29T20:11:11.431Z,37.10
2019-04-29T20:14:01.081Z,38.73
2019-04-29T20:20:00.427Z,36.13
2019-04-29T20:22:55.505Z,35.50
2019-04-29T20:25:39.659Z,34.80
2019-04-29T20:28:25.806Z,35.07
2019-04-29T20:31:20.851Z,35.00
2019-04-29T20:33:58.648Z,34.70
2019-04-29T20:36:45.771Z,34.60
2019-04-29T20:39:29.873Z,33.50
2019-04-29T20:42:15.673Z,34.43
2019-04-29T20:45:00.744Z,33.67
2019-04-29T20:47:45.677Z,31.73
2019-04-29T20:50:30.454Z,31.37
2019-04-29T20:56:28.381Z,30.60
2019-04-29T20:59:12.452Z,31.20
2019-04-29T21:02:11.327Z,29.83
2019-04-29T21:04:58.008Z,29.30
2019-04-29T21:07:40.880Z,29.07
2019-04-29T21:10:27.346Z,27.33
2019-04-29T21:13:31.108Z,29.70
2019-04-29T21:16:22.663Z,29.77
2019-04-29T21:19:17.571Z,29.03
2019-04-29T21:22:05.199Z,28.83
2019-04-29T21:25:00.685Z,28.83
2019-04-29T21:27:47.048Z,28.57
2019-04-29T21:30:35.467Z,28.73
2019-04-29T21:33:21.255Z,27.73
2019-04-29T21:42:38.418Z,25.33
2019-04-29T21:45:25.672Z,25.87
2019-04-29T21:48:09.453Z,26.12
2019-04-29T21:50:53.114Z,26.20
2019-04-29T21:53:40.246Z,26.87
2019-04-29T21:56:26.205Z,25.27
2019-04-29T21:59:15.627Z,26.67
2019-04-29T22:02:12.968Z,25.03
2019-04-29T22:04:58.764Z,24.63
2019-04-29T22:07:45.980Z,24.67
2019-04-29T22:10:19.932Z,24.40
2019-04-29T22:13:12.391Z,24.27
2019-04-29T22:15:56.446Z,25.27
2019-04-29T22:18:44.762Z,25.20
2019-04-29T22:21:26.167Z,24.40
2019-04-29T22:24:10.654Z,24.40
2019-04-29T22:26:56.486Z,21.87
2019-04-29T22:29:41.289Z,24.43
2019-04-29T22:32:25.109Z,24.70
2019-04-29T22:35:09.298Z,24.63
2019-04-29T22:37:53.147Z,23.90
2019-04-29T22:40:42.533Z,23.13
2019-04-29T22:46:17.578Z,22.20
2019-04-29T22:49:20.016Z,21.55
2019-04-29T22:52:00.641Z,21.63
2019-04-29T22:54:45.777Z,23.27
2019-04-29T22:57:31.643Z,21.77
2019-04-29T23:00:17.679Z,23.57
2019-04-29T23:03:02.272Z,21.70
2019-04-29T23:05:47.616Z,21.25
2019-04-29T23:08:36.573Z,21.40
2019-04-29T23:11:17.706Z,20.93
2019-04-29T23:14:08.540Z,21.10
2019-04-29T23:16:47.810Z,21.65
2019-04-29T23:19:31.454Z,21.83
2019-04-29T23:22:34.904Z,21.87
2019-04-29T23:25:38.124Z,22.23
2019-04-29T23:28:22.551Z,21.80
2019-04-29T23:31:08.577Z,22.70
2019-04-29T23:33:54.207Z,23.73
2019-04-29T23:36:38.865Z,24.23
2019-04-29T23:39:24.850Z,23.35
2019-04-29T23:42:12.275Z,24.97
2019-04-29T23:44:57.075Z,23.93
2019-04-29T23:47:41.837Z,24.23
2019-04-29T23:50:28.201Z,23.77
2019-04-29T23:53:12.425Z,24.03
2019-04-29T23:56:00.282Z,25.67
2019-04-29T23:59:05.486Z,25.60
